createdAt,value
2023-01-20T00:01:47.497Z,8.83
2023-01-20T00:04:18.450Z,8.83
2023-01-20T00:06:47.482Z,8.83
2023-01-20T00:09:17.301Z,8.82
2023-01-20T00:11:46.945Z,8.82
2023-01-20T00:14:15.800Z,8.82
2023-01-20T00:16:44.630Z,8.82
2023-01-20T00:19:14.333Z,8.84
2023-01-20T00:21:43.927Z,8.84
2023-01-20T00:24:13.049Z,8.84
2023-01-20T00:26:41.587Z,8.83
2023-01-20T00:29:10.489Z,8.84
2023-01-20T00:31:39.175Z,8.84
2023-01-20T00:34:10.097Z,8.85
2023-01-20T00:36:39.112Z,8.85
2023-01-20T00:39:08.048Z,8.86
2023-01-20T00:41:37.575Z,8.88
2023-01-20T00:44:06.359Z,8.89
2023-01-20T00:46:35.460Z,8.91
2023-01-20T00:49:04.665Z,8.91
2023-01-20T00:51:33.834Z,8.90
2023-01-20T00:54:02.692Z,8.90
2023-01-20T00:56:31.481Z,8.90
2023-01-20T00:59:01.183Z,8.89
2023-01-20T01:01:30.306Z,8.87
2023-01-20T01:03:59.341Z,8.85
2023-01-20T01:06:29.616Z,8.84
2023-01-20T01:08:59.973Z,8.83
2023-01-20T01:11:28.627Z,8.82
2023-01-20T01:13:57.569Z,8.80
2023-01-20T01:16:26.560Z,8.79
2023-01-20T01:18:55.705Z,8.77
2023-01-20T01:21:24.573Z,8.74
2023-01-20T01:23:53.933Z,8.72
2023-01-20T01:26:23.737Z,8.71
2023-01-20T01:28:53.465Z,8.69
2023-01-20T01:31:24.258Z,8.69
2023-01-20T01:33:53.173Z,8.68
2023-01-20T01:36:21.919Z,8.67
2023-01-20T01:38:57.960Z,8.68
2023-01-20T01:41:21.014Z,8.68
2023-01-20T01:44:10.592Z,8.66
2023-01-20T01:46:40.351Z,8.66
2023-01-20T01:49:17.170Z,8.62
2023-01-20T01:51:57.434Z,8.61
2023-01-20T01:54:38.479Z,8.58
2023-01-20T01:57:07.234Z,8.57
2023-01-20T01:59:36.015Z,8.56
2023-01-20T02:02:04.719Z,8.55
2023-01-20T02:04:34.987Z,8.54
2023-01-20T02:07:15.190Z,8.54
2023-01-20T02:09:45.235Z,8.52
2023-01-20T02:12:18.630Z,8.51
2023-01-20T02:14:54.354Z,8.49
2023-01-20T02:17:34.596Z,8.48
2023-01-20T02:20:17.906Z,8.46
2023-01-20T02:23:28.962Z,8.43
2023-01-20T02:26:03.339Z,8.39
2023-01-20T02:29:08.041Z,8.33
2023-01-20T02:32:11.312Z,8.28
2023-01-20T02:35:01.780Z,8.24
2023-01-20T02:38:06.644Z,8.20
2023-01-20T02:40:50.270Z,8.17
2023-01-20T02:43:24.843Z,8.13
2023-01-20T02:45:59.407Z,8.11
2023-01-20T02:48:48.934Z,8.09
2023-01-20T02:51:27.757Z,8.06
2023-01-20T02:54:00.977Z,8.02
2023-01-20T02:56:30.132Z,7.99
2023-01-20T02:59:06.411Z,7.98
2023-01-20T03:01:42.176Z,7.98
2023-01-20T03:04:12.342Z,7.98
2023-01-20T03:06:44.252Z,7.97
2023-01-20T03:09:16.354Z,7.94
2023-01-20T03:11:50.750Z,7.94
2023-01-20T03:14:19.642Z,7.94
2023-01-20T03:16:50.086Z,7.92
2023-01-20T03:19:20.522Z,7.92
2023-01-20T03:21:49.557Z,7.92
2023-01-20T03:24:18.816Z,7.90
2023-01-20T03:26:47.470Z,7.85
2023-01-20T03:29:18.058Z,7.80
2023-01-20T03:31:56.560Z,7.75
2023-01-20T03:34:26.423Z,7.72
2023-01-20T03:36:55.620Z,7.71
2023-01-20T03:39:24.407Z,7.71
2023-01-20T03:42:10.602Z,7.72
2023-01-20T03:45:03.337Z,7.72
2023-01-20T03:47:53.108Z,7.72
2023-01-20T03:50:39.692Z,7.70
2023-01-20T03:53:30.849Z,7.70
2023-01-20T03:56:14.334Z,7.70
2023-01-20T03:58:45.655Z,7.71
2023-01-20T04:01:18.099Z,7.70
2023-01-20T04:03:47.626Z,7.70
2023-01-20T04:06:17.021Z,7.71
2023-01-20T04:08:56.607Z,7.72
2023-01-20T04:11:26.928Z,7.73
2023-01-20T04:13:55.703Z,7.71
2023-01-20T04:16:24.600Z,7.69
2023-01-20T04:18:53.646Z,7.67
2023-01-20T04:21:43.267Z,7.62
2023-01-20T04:24:28.919Z,7.60
2023-01-20T04:26:58.546Z,7.60
2023-01-20T04:29:28.349Z,7.56
2023-01-20T04:32:01.692Z,7.56
2023-01-20T04:34:31.006Z,7.52
2023-01-20T04:36:59.782Z,7.49
2023-01-20T04:39:28.565Z,7.46
2023-01-20T04:41:58.611Z,7.46
2023-01-20T04:44:27.523Z,7.43
2023-01-20T04:46:59.237Z,7.42
2023-01-20T04:49:27.966Z,7.42
2023-01-20T04:51:56.720Z,7.40
2023-01-20T04:54:25.726Z,7.40
2023-01-20T04:56:54.741Z,7.39
2023-01-20T04:59:24.681Z,7.38
2023-01-20T05:01:54.003Z,7.33
2023-01-20T05:04:24.421Z,7.33
2023-01-20T05:06:53.756Z,7.32
2023-01-20T05:09:23.020Z,7.31
2023-01-20T05:11:52.312Z,7.33
2023-01-20T05:14:21.981Z,7.31
2023-01-20T05:16:50.947Z,7.31
2023-01-20T05:19:19.981Z,7.33
2023-01-20T05:21:49.061Z,7.33
2023-01-20T05:24:18.049Z,7.34
2023-01-20T05:26:47.318Z,7.33
2023-01-20T05:29:16.767Z,7.33
2023-01-20T05:31:45.689Z,7.31
2023-01-20T05:34:16.563Z,7.29
2023-01-20T05:36:46.561Z,7.29
2023-01-20T05:39:15.914Z,7.27
2023-01-20T05:41:46.437Z,7.26
2023-01-20T05:44:16.055Z,7.26
2023-01-20T05:46:45.101Z,7.27
2023-01-20T05:49:14.774Z,7.29
2023-01-20T05:51:43.498Z,7.28
2023-01-20T05:54:12.821Z,7.27
2023-01-20T05:56:42.025Z,7.25
2023-01-20T05:59:11.395Z,7.25
2023-01-20T06:01:40.321Z,7.23
2023-01-20T06:04:09.736Z,7.21
2023-01-20T06:06:39.231Z,7.18
2023-01-20T06:09:10.218Z,7.17
2023-01-20T06:11:39.351Z,7.18
2023-01-20T06:14:08.894Z,7.19
2023-01-20T06:16:39.754Z,7.20
2023-01-20T06:19:09.849Z,7.21
2023-01-20T06:21:39.503Z,7.19
2023-01-20T06:24:09.436Z,7.19
2023-01-20T06:26:38.537Z,7.19
2023-01-20T06:29:07.815Z,7.14
2023-01-20T06:31:38.734Z,7.11
2023-01-20T06:34:07.359Z,7.11
2023-01-20T06:36:36.569Z,7.10
2023-01-20T06:39:11.880Z,7.09
2023-01-20T06:41:40.426Z,7.06
2023-01-20T06:44:09.801Z,7.06
2023-01-20T06:46:38.494Z,7.07
2023-01-20T06:49:07.689Z,7.10
2023-01-20T06:51:36.679Z,7.10
2023-01-20T06:54:05.559Z,7.11
2023-01-20T06:56:35.154Z,7.10
2023-01-20T06:59:04.505Z,7.08
2023-01-20T07:01:34.188Z,7.09
2023-01-20T07:04:03.573Z,7.10
2023-01-20T07:06:35.652Z,7.09
2023-01-20T07:09:07.291Z,7.10
2023-01-20T07:11:36.167Z,7.09
2023-01-20T07:14:05.546Z,7.12
2023-01-20T07:16:34.701Z,7.13
2023-01-20T07:19:04.321Z,7.14
2023-01-20T07:21:34.174Z,7.16
2023-01-20T07:24:03.729Z,7.18
2023-01-20T07:26:32.374Z,7.18
2023-01-20T07:29:01.979Z,7.20
2023-01-20T07:31:31.925Z,7.21
2023-01-20T07:34:01.899Z,7.19
2023-01-20T07:36:30.861Z,7.18
2023-01-20T07:38:59.898Z,7.18
2023-01-20T07:41:29.417Z,7.20
2023-01-20T07:43:58.354Z,7.20
2023-01-20T07:46:27.811Z,7.22
2023-01-20T07:48:57.355Z,7.23
2023-01-20T07:51:26.756Z,7.25
2023-01-20T07:53:56.747Z,7.26
2023-01-20T07:56:27.662Z,7.26
2023-01-20T07:58:58.137Z,7.28
2023-01-20T08:01:31.946Z,7.28
2023-01-20T08:04:01.267Z,7.30
2023-01-20T08:06:31.488Z,7.35
2023-01-20T08:09:03.065Z,7.35
2023-01-20T08:11:32.529Z,7.33
2023-01-20T08:14:01.244Z,7.34
2023-01-20T08:16:31.320Z,7.37
2023-01-20T08:19:00.255Z,7.43
2023-01-20T08:21:31.475Z,7.44
2023-01-20T08:24:02.348Z,7.49
2023-01-20T08:26:31.826Z,7.53
2023-01-20T08:29:08.471Z,7.56
2023-01-20T08:31:38.417Z,7.60
2023-01-20T08:34:07.861Z,7.64
2023-01-20T08:36:37.789Z,7.68
2023-01-20T08:39:10.241Z,7.74
2023-01-20T08:41:39.500Z,7.81
2023-01-20T08:44:08.638Z,7.86
2023-01-20T08:46:40.472Z,7.92
2023-01-20T08:49:15.741Z,7.98
2023-01-20T08:51:45.365Z,8.03
2023-01-20T08:54:14.996Z,8.07
2023-01-20T08:56:44.807Z,8.10
2023-01-20T08:59:14.401Z,8.12
2023-01-20T09:01:44.681Z,8.14
2023-01-20T09:04:13.784Z,8.15
2023-01-20T09:06:46.451Z,8.17
2023-01-20T09:09:16.922Z,8.20
2023-01-20T09:11:47.919Z,8.22
2023-01-20T09:14:22.488Z,8.25
2023-01-20T09:16:51.615Z,8.27
2023-01-20T09:19:21.024Z,8.29
2023-01-20T09:21:50.294Z,8.31
2023-01-20T09:24:20.574Z,8.34
2023-01-20T09:26:53.629Z,8.36
2023-01-20T09:29:23.780Z,8.39
2023-01-20T09:32:00.394Z,8.41
2023-01-20T09:34:37.384Z,8.44
2023-01-20T09:37:36.154Z,8.49
2023-01-20T09:40:35.232Z,8.55
2023-01-20T09:43:42.968Z,8.58
2023-01-20T09:46:35.543Z,8.63
2023-01-20T09:49:49.605Z,8.67
2023-01-20T09:53:01.854Z,8.70
2023-01-20T09:55:50.764Z,8.75
2023-01-20T09:58:46.052Z,8.79
2023-01-20T10:01:55.044Z,8.81
2023-01-20T10:05:01.104Z,8.84
2023-01-20T10:07:40.756Z,8.88
2023-01-20T10:10:29.183Z,8.91
2023-01-20T10:13:16.584Z,8.91
2023-01-20T10:15:51.367Z,8.92
2023-01-20T10:18:46.651Z,8.96
2023-01-20T10:21:25.762Z,8.98
2023-01-20T10:24:04.119Z,9.01
2023-01-20T10:27:06.181Z,9.04
2023-01-20T10:30:07.706Z,9.08
2023-01-20T10:32:56.762Z,9.16
2023-01-20T10:35:29.231Z,9.23
2023-01-20T10:38:04.119Z,9.28
2023-01-20T10:40:58.324Z,9.33
2023-01-20T10:43:30.516Z,9.37
2023-01-20T10:46:23.402Z,9.44
2023-01-20T10:49:36.314Z,9.49
2023-01-20T10:52:17.531Z,9.54
2023-01-20T10:55:35.098Z,9.62
2023-01-20T10:58:30.018Z,9.68
2023-01-20T11:01:12.828Z,9.74
2023-01-20T11:03:47.392Z,9.80
2023-01-20T11:06:22.528Z,9.81
2023-01-20T11:08:51.200Z,9.83
2023-01-20T11:11:25.299Z,9.84
2023-01-20T11:13:57.428Z,9.86
2023-01-20T11:16:30.641Z,9.85
2023-01-20T11:19:07.892Z,9.89
2023-01-20T11:21:46.364Z,9.92
2023-01-20T11:24:45.079Z,9.98
2023-01-20T11:27:18.765Z,10.02
2023-01-20T11:30:11.402Z,10.03
2023-01-20T11:32:42.756Z,10.06
2023-01-20T11:35:26.909Z,10.10
2023-01-20T11:37:57.646Z,10.13
2023-01-20T11:40:35.921Z,10.15
2023-01-20T11:43:10.570Z,10.19
2023-01-20T11:45:40.363Z,10.23
2023-01-20T11:48:17.578Z,10.27
2023-01-20T11:50:57.093Z,10.31
2023-01-20T11:53:33.211Z,10.36
2023-01-20T11:56:19.722Z,10.39
2023-01-20T11:58:57.406Z,10.43
2023-01-20T12:01:28.886Z,10.46
2023-01-20T12:04:12.146Z,10.46
2023-01-20T12:07:03.304Z,10.45
2023-01-20T12:09:41.977Z,10.44
2023-01-20T12:12:17.852Z,10.46
2023-01-20T12:14:54.898Z,10.45
2023-01-20T12:17:50.609Z,10.46
2023-01-20T12:20:58.883Z,10.49
2023-01-20T12:23:52.289Z,10.48
2023-01-20T12:26:23.155Z,10.47
2023-01-20T12:29:05.027Z,10.48
2023-01-20T12:31:36.829Z,10.50
2023-01-20T12:34:12.978Z,10.51
2023-01-20T12:37:25.459Z,10.53
2023-01-20T12:40:07.594Z,10.55
2023-01-20T12:42:51.823Z,10.57
2023-01-20T12:45:48.823Z,10.58
2023-01-20T12:48:45.371Z,10.60
2023-01-20T12:51:46.173Z,10.63
2023-01-20T12:54:48.637Z,10.64
2023-01-20T12:57:35.144Z,10.65
2023-01-20T13:00:42.120Z,10.66
2023-01-20T13:03:50.288Z,10.65
2023-01-20T13:06:50.550Z,10.63
2023-01-20T13:09:54.987Z,10.63
2023-01-20T13:12:54.887Z,10.62
2023-01-20T13:15:49.655Z,10.62
2023-01-20T13:18:39.980Z,10.65
2023-01-20T13:21:20.679Z,10.67
2023-01-20T13:23:51.109Z,10.69
2023-01-20T13:26:26.217Z,10.72
2023-01-20T13:29:00.654Z,10.73
2023-01-20T13:31:46.551Z,10.73
2023-01-20T13:34:31.188Z,10.72
2023-01-20T13:37:19.103Z,10.72
2023-01-20T13:39:49.524Z,10.71
2023-01-20T13:42:42.784Z,10.69
2023-01-20T13:45:22.714Z,10.68
2023-01-20T13:48:09.457Z,10.67
2023-01-20T13:50:41.446Z,10.66
2023-01-20T13:53:32.537Z,10.63
2023-01-20T13:56:38.434Z,10.64
2023-01-20T13:59:12.164Z,10.64
2023-01-20T14:01:40.950Z,10.62
2023-01-20T14:04:20.511Z,10.61
2023-01-20T14:06:53.562Z,10.62
2023-01-20T14:09:24.428Z,10.60
2023-01-20T14:11:56.779Z,10.57
2023-01-20T14:14:26.371Z,10.54
2023-01-20T14:16:56.931Z,10.52
2023-01-20T14:19:34.793Z,10.48
2023-01-20T14:22:19.585Z,10.44
2023-01-20T14:24:53.497Z,10.42
2023-01-20T14:27:35.696Z,10.41
2023-01-20T14:30:24.199Z,10.42
2023-01-20T14:32:53.619Z,10.41
2023-01-20T14:35:34.521Z,10.41
2023-01-20T14:38:06.968Z,10.39
2023-01-20T14:40:37.343Z,10.36
2023-01-20T14:43:19.323Z,10.34
2023-01-20T14:45:52.838Z,10.30
2023-01-20T14:48:33.796Z,10.27
2023-01-20T14:50:57.313Z,10.22
2023-01-20T14:53:27.314Z,10.18
2023-01-20T14:56:09.336Z,10.10
2023-01-20T14:58:42.777Z,10.04
2023-01-20T15:01:19.999Z,10.00
2023-01-20T15:03:58.280Z,9.96
2023-01-20T15:06:27.453Z,9.93
2023-01-20T15:09:06.651Z,9.91
2023-01-20T15:11:30.374Z,9.87
2023-01-20T15:14:09.443Z,9.82
2023-01-20T15:16:49.287Z,9.76
2023-01-20T15:19:32.292Z,9.69
2023-01-20T15:22:21.142Z,9.63
2023-01-20T15:24:50.443Z,9.60
2023-01-20T15:27:30.291Z,9.56
2023-01-20T15:30:16.165Z,9.50
2023-01-20T15:32:47.915Z,9.47
2023-01-20T15:35:20.466Z,9.41
2023-01-20T15:38:03.895Z,9.37
2023-01-20T15:40:35.414Z,9.37
2023-01-20T15:43:16.004Z,9.31
2023-01-20T15:45:45.366Z,9.28
2023-01-20T15:48:21.019Z,9.23
2023-01-20T15:50:50.807Z,9.19
2023-01-20T15:53:22.436Z,9.15
2023-01-20T15:55:52.653Z,9.11
2023-01-20T15:58:27.051Z,9.08
2023-01-20T16:01:01.257Z,9.06
2023-01-20T16:03:35.306Z,9.04
2023-01-20T16:06:16.861Z,9.00
2023-01-20T16:08:48.988Z,8.98
2023-01-20T16:11:18.963Z,8.97
2023-01-20T16:13:49.151Z,8.94
2023-01-20T16:16:24.226Z,8.97
2023-01-20T16:18:53.669Z,9.03
2023-01-20T16:21:22.857Z,9.03
2023-01-20T16:23:52.425Z,8.98
2023-01-20T16:26:27.255Z,8.94
2023-01-20T16:28:57.483Z,8.90
2023-01-20T16:31:27.447Z,8.87
2023-01-20T16:33:57.004Z,8.84
2023-01-20T16:36:27.529Z,8.81
2023-01-20T16:38:59.607Z,8.79
2023-01-20T16:41:30.656Z,8.77
2023-01-20T16:43:59.559Z,8.72
2023-01-20T16:46:30.080Z,8.65
2023-01-20T16:49:01.188Z,8.60
2023-01-20T16:51:31.322Z,8.56
2023-01-20T16:54:02.584Z,8.51
2023-01-20T16:56:33.911Z,8.46
2023-01-20T16:59:03.342Z,8.43
2023-01-20T17:01:32.924Z,8.38
2023-01-20T17:04:03.250Z,8.37
2023-01-20T17:06:37.666Z,8.36
2023-01-20T17:09:12.697Z,8.33
2023-01-20T17:11:42.581Z,8.30
2023-01-20T17:14:11.441Z,8.27
2023-01-20T17:16:40.582Z,8.25
2023-01-20T17:19:10.932Z,8.23
2023-01-20T17:21:40.468Z,8.21
2023-01-20T17:24:11.721Z,8.17
2023-01-20T17:26:41.344Z,8.13
2023-01-20T17:29:10.695Z,8.12
2023-01-20T17:31:42.119Z,8.07
2023-01-20T17:34:12.169Z,7.99
2023-01-20T17:36:42.391Z,7.94
2023-01-20T17:39:11.056Z,7.91
2023-01-20T17:41:40.610Z,7.89
2023-01-20T17:44:09.612Z,7.86
2023-01-20T17:46:39.169Z,7.86
2023-01-20T17:49:08.538Z,7.85
2023-01-20T17:51:38.624Z,7.83
2023-01-20T17:54:09.653Z,7.82
2023-01-20T17:56:38.841Z,7.82
2023-01-20T17:59:07.631Z,7.78
2023-01-20T18:01:36.658Z,7.75
2023-01-20T18:04:06.785Z,7.72
2023-01-20T18:06:39.118Z,7.68
2023-01-20T18:09:18.618Z,7.64
2023-01-20T18:11:48.395Z,7.63
2023-01-20T18:14:17.222Z,7.60
2023-01-20T18:16:47.870Z,7.59
2023-01-20T18:19:19.309Z,7.57
2023-01-20T18:21:50.075Z,7.56
2023-01-20T18:24:18.897Z,7.52
2023-01-20T18:26:47.984Z,7.50
2023-01-20T18:29:17.182Z,7.49
2023-01-20T18:31:47.183Z,7.43
2023-01-20T18:34:16.209Z,7.40
2023-01-20T18:36:46.844Z,7.33
2023-01-20T18:39:19.585Z,7.26
2023-01-20T18:41:49.038Z,7.22
2023-01-20T18:44:18.168Z,7.21
2023-01-20T18:46:46.914Z,7.16
2023-01-20T18:49:16.750Z,7.17
2023-01-20T18:51:45.662Z,7.17
2023-01-20T18:54:18.194Z,7.14
2023-01-20T18:56:47.691Z,7.10
2023-01-20T18:59:17.174Z,7.03
2023-01-20T19:01:48.337Z,6.97
2023-01-20T19:04:18.452Z,6.96
2023-01-20T19:06:48.396Z,6.91
2023-01-20T19:09:17.132Z,6.89
2023-01-20T19:11:45.912Z,6.81
2023-01-20T19:14:15.176Z,6.72
2023-01-20T19:16:49.238Z,6.67
2023-01-20T19:19:19.240Z,6.65
2023-01-20T19:21:51.880Z,6.62
2023-01-20T19:24:21.046Z,6.55
2023-01-20T19:26:51.495Z,6.50
2023-01-20T19:29:20.437Z,6.47
2023-01-20T19:31:51.431Z,6.43
2023-01-20T19:34:21.113Z,6.37
2023-01-20T19:36:51.221Z,6.31
2023-01-20T19:39:20.567Z,6.25
2023-01-20T19:41:49.651Z,6.21
2023-01-20T19:44:19.073Z,6.18
2023-01-20T19:46:49.305Z,6.15
2023-01-20T19:49:21.368Z,6.14
2023-01-20T19:51:51.699Z,6.14
2023-01-20T19:54:20.726Z,6.12
2023-01-20T19:56:49.814Z,6.09
2023-01-20T19:59:18.959Z,6.01
2023-01-20T20:01:47.830Z,5.96
2023-01-20T20:04:20.146Z,5.91
2023-01-20T20:06:49.081Z,5.88
2023-01-20T20:09:20.542Z,5.86
2023-01-20T20:11:49.648Z,5.82
2023-01-20T20:14:21.163Z,5.74
2023-01-20T20:16:51.236Z,5.71
2023-01-20T20:19:20.399Z,5.68
2023-01-20T20:21:49.209Z,5.66
2023-01-20T20:24:18.446Z,5.66
2023-01-20T20:26:48.260Z,5.63
2023-01-20T20:29:18.208Z,5.58
2023-01-20T20:31:47.295Z,5.54
2023-01-20T20:34:18.518Z,5.47
2023-01-20T20:36:48.144Z,5.41
2023-01-20T20:39:18.880Z,5.38
2023-01-20T20:41:47.838Z,5.35
2023-01-20T20:44:17.658Z,5.27
2023-01-20T20:46:48.720Z,5.24
2023-01-20T20:49:20.078Z,5.16
2023-01-20T20:51:50.344Z,5.09
2023-01-20T20:54:20.873Z,5.09
2023-01-20T20:56:49.803Z,5.04
2023-01-20T20:59:22.088Z,5.01
2023-01-20T21:01:55.109Z,4.96
2023-01-20T21:04:24.075Z,4.89
2023-01-20T21:06:52.702Z,4.87
2023-01-20T21:09:22.319Z,4.82
2023-01-20T21:11:53.800Z,4.82
2023-01-20T21:14:25.084Z,4.83
2023-01-20T21:16:54.165Z,4.81
2023-01-20T21:19:24.461Z,4.82
2023-01-20T21:21:56.125Z,4.81
2023-01-20T21:24:28.898Z,4.77
2023-01-20T21:26:57.769Z,4.70
2023-01-20T21:29:27.666Z,4.65
2023-01-20T21:31:57.361Z,4.59
2023-01-20T21:34:27.367Z,4.57
2023-01-20T21:36:57.156Z,4.57
2023-01-20T21:39:28.673Z,4.53
2023-01-20T21:41:59.547Z,4.47
2023-01-20T21:44:29.197Z,4.49
2023-01-20T21:47:05.871Z,4.48
2023-01-20T21:49:47.320Z,4.45
2023-01-20T21:52:37.237Z,4.41
2023-01-20T21:55:09.349Z,4.41
2023-01-20T21:57:40.336Z,4.44
2023-01-20T22:00:10.851Z,4.44
